sensor_id;sensor_type;location;lat;lon;timestamp;P1;durP1;ratioP1;P2;durP2;ratioP2
69894;SDS011;57172;52.034;5.090;2022-08-04T00:08:03;5.28;;;2.55;;
69894;SDS011;57172;52.034;5.090;2022-08-04T00:10:37;7.60;;;2.70;;
69894;SDS011;57172;52.034;5.090;2022-08-04T00:13:05;7.70;;;2.70;;
69894;SDS011;57172;52.034;5.090;2022-08-04T00:15:34;8.30;;;2.60;;
69894;SDS011;57172;52.034;5.090;2022-08-04T00:18:03;6.32;;;2.70;;
69894;SDS011;57172;52.034;5.090;2022-08-04T00:20:33;4.72;;;2.60;;
69894;SDS011;57172;52.034;5.090;2022-08-04T00:23:04;5.40;;;2.80;;
69894;SDS011;57172;52.034;5.090;2022-08-04T00:25:32;5.33;;;2.70;;
69894;SDS011;57172;52.034;5.090;2022-08-04T00:27:59;5.57;;;2.70;;
69894;SDS011;57172;52.034;5.090;2022-08-04T00:30:29;6.72;;;2.60;;
69894;SDS011;57172;52.034;5.090;2022-08-04T00:32:57;5.32;;;2.83;;
69894;SDS011;57172;52.034;5.090;2022-08-04T00:35:25;5.55;;;2.60;;
69894;SDS011;57172;52.034;5.090;2022-08-04T00:37:54;6.43;;;2.77;;
69894;SDS011;57172;52.034;5.090;2022-08-04T00:40:22;7.30;;;2.80;;
69894;SDS011;57172;52.034;5.090;2022-08-04T00:43:05;7.68;;;2.75;;
69894;SDS011;57172;52.034;5.090;2022-08-04T00:49:01;5.93;;;2.60;;
69894;SDS011;57172;52.034;5.090;2022-08-04T00:51:45;6.73;;;2.60;;
69894;SDS011;57172;52.034;5.090;2022-08-04T01:06:35;7.60;;;2.80;;
69894;SDS011;57172;52.034;5.090;2022-08-04T01:09:40;5.47;;;2.70;;
69894;SDS011;57172;52.034;5.090;2022-08-04T01:15:23;5.75;;;2.70;;
69894;SDS011;57172;52.034;5.090;2022-08-04T01:18:23;5.43;;;2.65;;
69894;SDS011;57172;52.034;5.090;2022-08-04T01:27:05;8.07;;;3.25;;
69894;SDS011;57172;52.034;5.090;2022-08-04T01:29:37;8.75;;;3.00;;
69894;SDS011;57172;52.034;5.090;2022-08-04T01:32:19;8.52;;;3.00;;
69894;SDS011;57172;52.034;5.090;2022-08-04T01:34:53;6.70;;;2.90;;
69894;SDS011;57172;52.034;5.090;2022-08-04T01:40:18;6.35;;;3.05;;
69894;SDS011;57172;52.034;5.090;2022-08-04T01:42:48;7.05;;;2.95;;
69894;SDS011;57172;52.034;5.090;2022-08-04T01:45:19;11.02;;;3.08;;
69894;SDS011;57172;52.034;5.090;2022-08-04T01:47:49;8.63;;;3.20;;
69894;SDS011;57172;52.034;5.090;2022-08-04T01:50:20;7.57;;;2.83;;
69894;SDS011;57172;52.034;5.090;2022-08-04T01:52:49;6.43;;;3.03;;
69894;SDS011;57172;52.034;5.090;2022-08-04T01:55:18;6.35;;;2.80;;
69894;SDS011;57172;52.034;5.090;2022-08-04T01:57:50;8.15;;;2.90;;
69894;SDS011;57172;52.034;5.090;2022-08-04T02:00:22;5.90;;;2.53;;
69894;SDS011;57172;52.034;5.090;2022-08-04T02:02:53;7.93;;;3.05;;
69894;SDS011;57172;52.034;5.090;2022-08-04T02:05:23;6.20;;;3.00;;
69894;SDS011;57172;52.034;5.090;2022-08-04T02:08:21;6.88;;;3.08;;
69894;SDS011;57172;52.034;5.090;2022-08-04T02:13:57;7.83;;;3.13;;
69894;SDS011;57172;52.034;5.090;2022-08-04T02:17:03;6.53;;;3.17;;
69894;SDS011;57172;52.034;5.090;2022-08-04T02:20:22;6.60;;;3.03;;
69894;SDS011;57172;52.034;5.090;2022-08-04T02:25:21;7.13;;;3.20;;
69894;SDS011;57172;52.034;5.090;2022-08-04T02:30:35;9.30;;;3.15;;
69894;SDS011;57172;52.034;5.090;2022-08-04T02:33:25;8.50;;;3.42;;
69894;SDS011;57172;52.034;5.090;2022-08-04T02:35:58;8.52;;;3.13;;
69894;SDS011;57172;52.034;5.090;2022-08-04T02:41:28;9.97;;;3.50;;
69894;SDS011;57172;52.034;5.090;2022-08-04T02:44:03;8.68;;;3.45;;
69894;SDS011;57172;52.034;5.090;2022-08-04T02:46:36;8.27;;;3.33;;
69894;SDS011;57172;52.034;5.090;2022-08-04T02:49:08;8.60;;;3.42;;
69894;SDS011;57172;52.034;5.090;2022-08-04T02:51:36;7.90;;;3.45;;
69894;SDS011;57172;52.034;5.090;2022-08-04T02:54:06;6.53;;;3.30;;
69894;SDS011;57172;52.034;5.090;2022-08-04T02:56:34;8.35;;;3.25;;
69894;SDS011;57172;52.034;5.090;2022-08-04T02:59:07;7.65;;;3.30;;
69894;SDS011;57172;52.034;5.090;2022-08-04T03:01:35;9.90;;;3.13;;
69894;SDS011;57172;52.034;5.090;2022-08-04T03:09:50;9.30;;;3.42;;
69894;SDS011;57172;52.034;5.090;2022-08-04T03:32:28;7.78;;;3.47;;
69894;SDS011;57172;52.034;5.090;2022-08-04T03:40:44;8.20;;;3.50;;
69894;SDS011;57172;52.034;5.090;2022-08-04T03:46:49;8.18;;;3.22;;
69894;SDS011;57172;52.034;5.090;2022-08-04T04:01:16;7.97;;;3.47;;
69894;SDS011;57172;52.034;5.090;2022-08-04T04:18:15;13.13;;;4.70;;
69894;SDS011;57172;52.034;5.090;2022-08-04T04:32:23;11.43;;;4.17;;
69894;SDS011;57172;52.034;5.090;2022-08-04T04:40:53;10.55;;;3.85;;
69894;SDS011;57172;52.034;5.090;2022-08-04T04:54:38;8.02;;;3.50;;
69894;SDS011;57172;52.034;5.090;2022-08-04T04:57:17;12.00;;;3.45;;
69894;SDS011;57172;52.034;5.090;2022-08-04T05:00:08;7.63;;;3.50;;
69894;SDS011;57172;52.034;5.090;2022-08-04T05:02:49;8.85;;;3.45;;
69894;SDS011;57172;52.034;5.090;2022-08-04T05:08:26;10.52;;;3.60;;
69894;SDS011;57172;52.034;5.090;2022-08-04T05:14:28;8.27;;;3.30;;
69894;SDS011;57172;52.034;5.090;2022-08-04T05:22:30;7.60;;;3.60;;
69894;SDS011;57172;52.034;5.090;2022-08-04T05:25:02;12.45;;;4.15;;
69894;SDS011;57172;52.034;5.090;2022-08-04T05:27:36;8.93;;;3.90;;
69894;SDS011;57172;52.034;5.090;2022-08-04T05:30:08;9.35;;;3.90;;
69894;SDS011;57172;52.034;5.090;2022-08-04T05:32:40;8.57;;;3.75;;
69894;SDS011;57172;52.034;5.090;2022-08-04T05:35:35;9.98;;;3.75;;
69894;SDS011;57172;52.034;5.090;2022-08-04T05:38:23;10.88;;;3.90;;
69894;SDS011;57172;52.034;5.090;2022-08-04T05:40:55;8.33;;;3.97;;
69894;SDS011;57172;52.034;5.090;2022-08-04T05:43:22;8.55;;;3.88;;
69894;SDS011;57172;52.034;5.090;2022-08-04T05:45:50;7.30;;;4.20;;
69894;SDS011;57172;52.034;5.090;2022-08-04T05:48:18;11.40;;;4.30;;
69894;SDS011;57172;52.034;5.090;2022-08-04T05:50:45;9.43;;;4.05;;
69894;SDS011;57172;52.034;5.090;2022-08-04T05:53:13;10.77;;;4.13;;
69894;SDS011;57172;52.034;5.090;2022-08-04T05:55:43;9.95;;;4.40;;
69894;SDS011;57172;52.034;5.090;2022-08-04T05:58:24;8.40;;;4.22;;
69894;SDS011;57172;52.034;5.090;2022-08-04T06:00:59;9.32;;;4.00;;
69894;SDS011;57172;52.034;5.090;2022-08-04T06:03:30;10.18;;;4.30;;
69894;SDS011;57172;52.034;5.090;2022-08-04T06:06:00;9.00;;;3.90;;
69894;SDS011;57172;52.034;5.090;2022-08-04T06:08:28;8.48;;;4.15;;
69894;SDS011;57172;52.034;5.090;2022-08-04T06:10:56;9.90;;;4.05;;
69894;SDS011;57172;52.034;5.090;2022-08-04T06:13:28;12.30;;;4.43;;
69894;SDS011;57172;52.034;5.090;2022-08-04T06:16:17;9.43;;;4.25;;
69894;SDS011;57172;52.034;5.090;2022-08-04T06:18:56;11.07;;;4.70;;
69894;SDS011;57172;52.034;5.090;2022-08-04T06:21:49;10.02;;;4.60;;
69894;SDS011;57172;52.034;5.090;2022-08-04T06:24:18;9.27;;;4.47;;
69894;SDS011;57172;52.034;5.090;2022-08-04T06:26:48;8.60;;;4.07;;
69894;SDS011;57172;52.034;5.090;2022-08-04T06:29:17;13.00;;;4.38;;
69894;SDS011;57172;52.034;5.090;2022-08-04T06:31:51;8.37;;;3.53;;
69894;SDS011;57172;52.034;5.090;2022-08-04T06:34:47;8.32;;;3.63;;
69894;SDS011;57172;52.034;5.090;2022-08-04T06:37:20;11.25;;;3.80;;
69894;SDS011;57172;52.034;5.090;2022-08-04T06:40:10;8.82;;;3.65;;
69894;SDS011;57172;52.034;5.090;2022-08-04T06:42:58;9.00;;;3.50;;
69894;SDS011;57172;52.034;5.090;2022-08-04T06:45:30;8.47;;;3.10;;
69894;SDS011;57172;52.034;5.090;2022-08-04T06:48:00;13.32;;;3.47;;
69894;SDS011;57172;52.034;5.090;2022-08-04T06:50:29;7.97;;;3.33;;
69894;SDS011;57172;52.034;5.090;2022-08-04T06:53:16;7.93;;;3.47;;
69894;SDS011;57172;52.034;5.090;2022-08-04T06:55:45;7.70;;;3.42;;
69894;SDS011;57172;52.034;5.090;2022-08-04T06:58:13;9.13;;;3.40;;
69894;SDS011;57172;52.034;5.090;2022-08-04T07:00:42;12.13;;;3.28;;
69894;SDS011;57172;52.034;5.090;2022-08-04T07:03:10;8.35;;;3.47;;
69894;SDS011;57172;52.034;5.090;2022-08-04T07:05:38;9.52;;;3.47;;
69894;SDS011;57172;52.034;5.090;2022-08-04T07:08:06;10.85;;;3.40;;
69894;SDS011;57172;52.034;5.090;2022-08-04T07:10:35;8.90;;;3.50;;
69894;SDS011;57172;52.034;5.090;2022-08-04T07:13:03;9.45;;;3.90;;
69894;SDS011;57172;52.034;5.090;2022-08-04T07:15:32;11.25;;;3.70;;
69894;SDS011;57172;52.034;5.090;2022-08-04T07:18:00;10.23;;;3.40;;
69894;SDS011;57172;52.034;5.090;2022-08-04T07:20:30;8.52;;;3.70;;
69894;SDS011;57172;52.034;5.090;2022-08-04T07:23:01;8.77;;;3.43;;
69894;SDS011;57172;52.034;5.090;2022-08-04T07:25:29;8.57;;;3.60;;
69894;SDS011;57172;52.034;5.090;2022-08-04T07:28:18;7.80;;;3.60;;
69894;SDS011;57172;52.034;5.090;2022-08-04T07:30:47;12.52;;;3.53;;
69894;SDS011;57172;52.034;5.090;2022-08-04T07:33:15;9.63;;;3.45;;
69894;SDS011;57172;52.034;5.090;2022-08-04T07:35:43;10.70;;;3.50;;
69894;SDS011;57172;52.034;5.090;2022-08-04T07:38:35;7.53;;;3.33;;
69894;SDS011;57172;52.034;5.090;2022-08-04T07:41:14;10.98;;;3.33;;
69894;SDS011;57172;52.034;5.090;2022-08-04T07:44:04;8.43;;;3.30;;
69894;SDS011;57172;52.034;5.090;2022-08-04T07:46:32;6.93;;;3.00;;
69894;SDS011;57172;52.034;5.090;2022-08-04T07:49:00;7.20;;;2.83;;
69894;SDS011;57172;52.034;5.090;2022-08-04T07:51:29;8.95;;;2.80;;
69894;SDS011;57172;52.034;5.090;2022-08-04T07:53:57;9.15;;;2.80;;
69894;SDS011;57172;52.034;5.090;2022-08-04T07:56:25;8.43;;;2.85;;
69894;SDS011;57172;52.034;5.090;2022-08-04T07:58:53;8.23;;;2.70;;
69894;SDS011;57172;52.034;5.090;2022-08-04T08:01:20;8.90;;;2.80;;
69894;SDS011;57172;52.034;5.090;2022-08-04T08:03:48;10.63;;;2.92;;
69894;SDS011;57172;52.034;5.090;2022-08-04T08:06:16;8.48;;;3.00;;
69894;SDS011;57172;52.034;5.090;2022-08-04T08:09:00;10.45;;;3.13;;
69894;SDS011;57172;52.034;5.090;2022-08-04T08:11:43;6.38;;;2.83;;
69894;SDS011;57172;52.034;5.090;2022-08-04T08:14:32;7.27;;;2.60;;
69894;SDS011;57172;52.034;5.090;2022-08-04T08:17:01;9.65;;;2.60;;
69894;SDS011;57172;52.034;5.090;2022-08-04T08:19:29;7.57;;;2.72;;
69894;SDS011;57172;52.034;5.090;2022-08-04T08:21:57;9.98;;;2.58;;
69894;SDS011;57172;52.034;5.090;2022-08-04T08:24:30;11.00;;;3.00;;
69894;SDS011;57172;52.034;5.090;2022-08-04T08:27:00;8.40;;;2.60;;
69894;SDS011;57172;52.034;5.090;2022-08-04T08:29:29;10.65;;;2.60;;
69894;SDS011;57172;52.034;5.090;2022-08-04T08:31:59;7.90;;;2.67;;
69894;SDS011;57172;52.034;5.090;2022-08-04T08:34:33;10.40;;;2.72;;
69894;SDS011;57172;52.034;5.090;2022-08-04T08:39:34;7.17;;;2.37;;
69894;SDS011;57172;52.034;5.090;2022-08-04T08:42:18;7.55;;;2.22;;
69894;SDS011;57172;52.034;5.090;2022-08-04T08:47:53;5.55;;;2.47;;
69894;SDS011;57172;52.034;5.090;2022-08-04T09:07:46;6.67;;;2.00;;
69894;SDS011;57172;52.034;5.090;2022-08-04T09:15:58;4.43;;;1.90;;
69894;SDS011;57172;52.034;5.090;2022-08-04T09:18:41;7.38;;;1.90;;
69894;SDS011;57172;52.034;5.090;2022-08-04T09:21:31;5.60;;;1.70;;
69894;SDS011;57172;52.034;5.090;2022-08-04T09:24:12;6.97;;;1.80;;
69894;SDS011;57172;52.034;5.090;2022-08-04T09:27:03;5.47;;;1.98;;
69894;SDS011;57172;52.034;5.090;2022-08-04T09:41:01;4.18;;;1.88;;
69894;SDS011;57172;52.034;5.090;2022-08-04T09:47:16;5.53;;;1.80;;
69894;SDS011;57172;52.034;5.090;2022-08-04T09:55:54;9.30;;;1.85;;
69894;SDS011;57172;52.034;5.090;2022-08-04T10:01:24;4.70;;;1.70;;
69894;SDS011;57172;52.034;5.090;2022-08-04T10:03:54;6.70;;;1.90;;
69894;SDS011;57172;52.034;5.090;2022-08-04T10:06:33;5.82;;;2.10;;
69894;SDS011;57172;52.034;5.090;2022-08-04T10:17:50;11.33;;;2.07;;
69894;SDS011;57172;52.034;5.090;2022-08-04T10:23:41;6.18;;;2.03;;
69894;SDS011;57172;52.034;5.090;2022-08-04T10:26:43;6.90;;;1.83;;
69894;SDS011;57172;52.034;5.090;2022-08-04T10:35:08;5.55;;;1.88;;
69894;SDS011;57172;52.034;5.090;2022-08-04T10:40:39;5.75;;;2.03;;
69894;SDS011;57172;52.034;5.090;2022-08-04T10:45:57;5.20;;;1.90;;
69894;SDS011;57172;52.034;5.090;2022-08-04T10:54:41;5.35;;;1.80;;
69894;SDS011;57172;52.034;5.090;2022-08-04T10:57:28;3.17;;;1.80;;
69894;SDS011;57172;52.034;5.090;2022-08-04T11:00:05;5.57;;;2.00;;
69894;SDS011;57172;52.034;5.090;2022-08-04T11:05:40;3.42;;;1.80;;
69894;SDS011;57172;52.034;5.090;2022-08-04T11:08:13;4.80;;;1.80;;
69894;SDS011;57172;52.034;5.090;2022-08-04T11:10:50;6.95;;;1.80;;
69894;SDS011;57172;52.034;5.090;2022-08-04T11:13:24;4.83;;;2.10;;
69894;SDS011;57172;52.034;5.090;2022-08-04T11:15:57;4.13;;;1.70;;
69894;SDS011;57172;52.034;5.090;2022-08-04T11:21:27;4.65;;;1.50;;
69894;SDS011;57172;52.034;5.090;2022-08-04T11:24:04;3.20;;;1.60;;
69894;SDS011;57172;52.034;5.090;2022-08-04T11:27:05;2.90;;;1.50;;
69894;SDS011;57172;52.034;5.090;2022-08-04T11:32:43;4.47;;;1.60;;
69894;SDS011;57172;52.034;5.090;2022-08-04T11:36:28;4.72;;;1.55;;
69894;SDS011;57172;52.034;5.090;2022-08-04T11:38:46;2.88;;;1.58;;
69894;SDS011;57172;52.034;5.090;2022-08-04T11:41:25;3.27;;;1.50;;
69894;SDS011;57172;52.034;5.090;2022-08-04T11:44:03;3.00;;;1.50;;
69894;SDS011;57172;52.034;5.090;2022-08-04T11:46:42;4.40;;;1.50;;
69894;SDS011;57172;52.034;5.090;2022-08-04T11:49:23;3.53;;;1.20;;
69894;SDS011;57172;52.034;5.090;2022-08-04T11:51:51;4.13;;;1.48;;
69894;SDS011;57172;52.034;5.090;2022-08-04T11:54:22;3.57;;;1.40;;
69894;SDS011;57172;52.034;5.090;2022-08-04T11:56:49;4.22;;;1.15;;
69894;SDS011;57172;52.034;5.090;2022-08-04T11:59:16;4.32;;;1.30;;
69894;SDS011;57172;52.034;5.090;2022-08-04T12:13:20;5.70;;;1.58;;
69894;SDS011;57172;52.034;5.090;2022-08-04T12:16:00;4.78;;;1.48;;
69894;SDS011;57172;52.034;5.090;2022-08-04T12:18:58;4.03;;;1.70;;
69894;SDS011;57172;52.034;5.090;2022-08-04T12:21:38;5.40;;;1.50;;
69894;SDS011;57172;52.034;5.090;2022-08-04T12:24:19;3.15;;;1.40;;
69894;SDS011;57172;52.034;5.090;2022-08-04T12:26:51;4.25;;;1.65;;
69894;SDS011;57172;52.034;5.090;2022-08-04T12:29:21;3.83;;;1.50;;
69894;SDS011;57172;52.034;5.090;2022-08-04T12:31:54;6.82;;;1.90;;
69894;SDS011;57172;52.034;5.090;2022-08-04T12:34:39;6.50;;;1.80;;
69894;SDS011;57172;52.034;5.090;2022-08-04T12:39:52;5.35;;;1.60;;
69894;SDS011;57172;52.034;5.090;2022-08-04T12:42:41;4.22;;;1.60;;
69894;SDS011;57172;52.034;5.090;2022-08-04T12:45:24;4.75;;;1.80;;
69894;SDS011;57172;52.034;5.090;2022-08-04T12:47:52;7.73;;;1.67;;
69894;SDS011;57172;52.034;5.090;2022-08-04T12:50:22;4.32;;;1.50;;
69894;SDS011;57172;52.034;5.090;2022-08-04T12:52:54;3.55;;;1.50;;
69894;SDS011;57172;52.034;5.090;2022-08-04T12:55:30;4.32;;;1.27;;
69894;SDS011;57172;52.034;5.090;2022-08-04T12:58:10;5.10;;;1.50;;
69894;SDS011;57172;52.034;5.090;2022-08-04T13:00:41;3.13;;;1.47;;
69894;SDS011;57172;52.034;5.090;2022-08-04T13:03:10;6.70;;;1.48;;
69894;SDS011;57172;52.034;5.090;2022-08-04T13:05:40;2.58;;;1.40;;
69894;SDS011;57172;52.034;5.090;2022-08-04T13:08:09;3.63;;;1.40;;
69894;SDS011;57172;52.034;5.090;2022-08-04T13:10:43;3.22;;;1.40;;
69894;SDS011;57172;52.034;5.090;2022-08-04T13:13:16;6.03;;;1.40;;
69894;SDS011;57172;52.034;5.090;2022-08-04T13:15:58;4.18;;;1.40;;
69894;SDS011;57172;52.034;5.090;2022-08-04T13:18:29;4.00;;;1.40;;
69894;SDS011;57172;52.034;5.090;2022-08-04T13:21:07;4.07;;;1.50;;
69894;SDS011;57172;52.034;5.090;2022-08-04T13:23:48;5.13;;;1.40;;
69894;SDS011;57172;52.034;5.090;2022-08-04T13:26:37;4.40;;;1.20;;
69894;SDS011;57172;52.034;5.090;2022-08-04T13:29:21;4.05;;;1.40;;
69894;SDS011;57172;52.034;5.090;2022-08-04T13:32:19;3.00;;;1.40;;
69894;SDS011;57172;52.034;5.090;2022-08-04T13:34:49;4.00;;;1.50;;
69894;SDS011;57172;52.034;5.090;2022-08-04T13:37:19;3.95;;;1.52;;
69894;SDS011;57172;52.034;5.090;2022-08-04T13:39:52;3.93;;;1.40;;
69894;SDS011;57172;52.034;5.090;2022-08-04T13:42:21;4.60;;;1.50;;
69894;SDS011;57172;52.034;5.090;2022-08-04T13:44:52;3.92;;;1.33;;
69894;SDS011;57172;52.034;5.090;2022-08-04T13:47:23;2.92;;;1.30;;
69894;SDS011;57172;52.034;5.090;2022-08-04T13:50:04;3.17;;;1.50;;
69894;SDS011;57172;52.034;5.090;2022-08-04T13:52:36;5.23;;;1.60;;
69894;SDS011;57172;52.034;5.090;2022-08-04T13:55:06;5.00;;;1.40;;
69894;SDS011;57172;52.034;5.090;2022-08-04T13:57:44;4.93;;;1.38;;
69894;SDS011;57172;52.034;5.090;2022-08-04T14:00:15;4.60;;;1.40;;
69894;SDS011;57172;52.034;5.090;2022-08-04T14:03:00;5.53;;;1.50;;
69894;SDS011;57172;52.034;5.090;2022-08-04T14:08:57;3.35;;;1.40;;
69894;SDS011;57172;52.034;5.090;2022-08-04T14:11:39;3.50;;;1.40;;
69894;SDS011;57172;52.034;5.090;2022-08-04T14:14:29;3.50;;;1.30;;
69894;SDS011;57172;52.034;5.090;2022-08-04T14:17:08;4.63;;;1.60;;
69894;SDS011;57172;52.034;5.090;2022-08-04T14:24:58;3.15;;;1.52;;
69894;SDS011;57172;52.034;5.090;2022-08-04T14:27:47;4.03;;;1.30;;
69894;SDS011;57172;52.034;5.090;2022-08-04T14:32:55;3.77;;;1.40;;
69894;SDS011;57172;52.034;5.090;2022-08-04T14:35:57;5.90;;;1.60;;
69894;SDS011;57172;52.034;5.090;2022-08-04T14:41:25;3.83;;;1.60;;
69894;SDS011;57172;52.034;5.090;2022-08-04T14:43:55;4.68;;;1.60;;
69894;SDS011;57172;52.034;5.090;2022-08-04T14:46:23;5.80;;;1.60;;
69894;SDS011;57172;52.034;5.090;2022-08-04T14:49:09;4.95;;;1.50;;
69894;SDS011;57172;52.034;5.090;2022-08-04T14:51:39;7.18;;;1.60;;
69894;SDS011;57172;52.034;5.090;2022-08-04T14:54:12;4.90;;;1.60;;
69894;SDS011;57172;52.034;5.090;2022-08-04T14:56:50;3.47;;;1.55;;
69894;SDS011;57172;52.034;5.090;2022-08-04T14:59:19;4.57;;;1.57;;
69894;SDS011;57172;52.034;5.090;2022-08-04T15:01:47;3.75;;;1.63;;
69894;SDS011;57172;52.034;5.090;2022-08-04T15:04:26;5.10;;;1.55;;
69894;SDS011;57172;52.034;5.090;2022-08-04T15:06:54;6.38;;;1.60;;
69894;SDS011;57172;52.034;5.090;2022-08-04T15:09:22;4.72;;;1.50;;
69894;SDS011;57172;52.034;5.090;2022-08-04T15:11:49;5.30;;;1.37;;
69894;SDS011;57172;52.034;5.090;2022-08-04T15:14:16;4.90;;;1.60;;
69894;SDS011;57172;52.034;5.090;2022-08-04T15:17:05;3.85;;;1.60;;
69894;SDS011;57172;52.034;5.090;2022-08-04T15:19:53;4.72;;;1.50;;
69894;SDS011;57172;52.034;5.090;2022-08-04T15:22:21;3.40;;;1.50;;
69894;SDS011;57172;52.034;5.090;2022-08-04T15:24:49;8.70;;;1.40;;
69894;SDS011;57172;52.034;5.090;2022-08-04T15:27:22;3.78;;;1.50;;
69894;SDS011;57172;52.034;5.090;2022-08-04T15:29:52;6.55;;;1.70;;
69894;SDS011;57172;52.034;5.090;2022-08-04T15:32:28;5.03;;;1.42;;
69894;SDS011;57172;52.034;5.090;2022-08-04T15:35:09;3.50;;;1.50;;
69894;SDS011;57172;52.034;5.090;2022-08-04T15:37:56;4.13;;;1.50;;
69894;SDS011;57172;52.034;5.090;2022-08-04T15:46:27;3.13;;;1.48;;
69894;SDS011;57172;52.034;5.090;2022-08-04T15:49:17;3.00;;;1.40;;
69894;SDS011;57172;52.034;5.090;2022-08-04T15:51:45;3.43;;;1.50;;
69894;SDS011;57172;52.034;5.090;2022-08-04T15:56:56;5.28;;;1.70;;
69894;SDS011;57172;52.034;5.090;2022-08-04T16:07:53;5.20;;;1.60;;
69894;SDS011;57172;52.034;5.090;2022-08-04T16:13:02;4.07;;;1.73;;
69894;SDS011;57172;52.034;5.090;2022-08-04T16:20:57;3.97;;;1.60;;
69894;SDS011;57172;52.034;5.090;2022-08-04T16:23:53;5.00;;;1.63;;
69894;SDS011;57172;52.034;5.090;2022-08-04T16:35:17;4.50;;;1.73;;
69894;SDS011;57172;52.034;5.090;2022-08-04T16:37:35;4.20;;;1.55;;
69894;SDS011;57172;52.034;5.090;2022-08-04T16:40:22;6.32;;;1.90;;
69894;SDS011;57172;52.034;5.090;2022-08-04T16:45:43;7.07;;;1.90;;
69894;SDS011;57172;52.034;5.090;2022-08-04T16:48:16;6.22;;;1.55;;
69894;SDS011;57172;52.034;5.090;2022-08-04T16:50:57;5.03;;;1.80;;
69894;SDS011;57172;52.034;5.090;2022-08-04T16:53:38;4.63;;;1.70;;
69894;SDS011;57172;52.034;5.090;2022-08-04T16:56:32;3.90;;;1.80;;
69894;SDS011;57172;52.034;5.090;2022-08-04T16:59:04;3.63;;;1.73;;
69894;SDS011;57172;52.034;5.090;2022-08-04T17:01:33;5.60;;;1.65;;
69894;SDS011;57172;52.034;5.090;2022-08-04T17:04:01;5.60;;;1.80;;
69894;SDS011;57172;52.034;5.090;2022-08-04T17:06:37;5.63;;;1.88;;
69894;SDS011;57172;52.034;5.090;2022-08-04T17:09:14;6.28;;;1.83;;
69894;SDS011;57172;52.034;5.090;2022-08-04T17:11:43;3.60;;;1.90;;
69894;SDS011;57172;52.034;5.090;2022-08-04T17:14:11;5.93;;;1.80;;
69894;SDS011;57172;52.034;5.090;2022-08-04T17:16:40;4.80;;;2.00;;
69894;SDS011;57172;52.034;5.090;2022-08-04T17:19:08;4.45;;;1.80;;
69894;SDS011;57172;52.034;5.090;2022-08-04T17:21:52;4.03;;;1.77;;
69894;SDS011;57172;52.034;5.090;2022-08-04T17:24:28;4.57;;;1.63;;
69894;SDS011;57172;52.034;5.090;2022-08-04T17:26:55;5.47;;;1.80;;
69894;SDS011;57172;52.034;5.090;2022-08-04T17:29:25;3.83;;;1.60;;
69894;SDS011;57172;52.034;5.090;2022-08-04T17:32:12;4.57;;;1.88;;
69894;SDS011;57172;52.034;5.090;2022-08-04T17:34:40;4.57;;;1.65;;
69894;SDS011;57172;52.034;5.090;2022-08-04T17:37:11;4.77;;;1.90;;
69894;SDS011;57172;52.034;5.090;2022-08-04T17:40:05;6.05;;;2.00;;
69894;SDS011;57172;52.034;5.090;2022-08-04T17:42:35;6.13;;;1.80;;
69894;SDS011;57172;52.034;5.090;2022-08-04T17:45:10;5.95;;;1.83;;
69894;SDS011;57172;52.034;5.090;2022-08-04T17:48:05;6.78;;;1.90;;
69894;SDS011;57172;52.034;5.090;2022-08-04T17:50:49;5.07;;;1.80;;
69894;SDS011;57172;52.034;5.090;2022-08-04T17:53:16;4.15;;;1.75;;
69894;SDS011;57172;52.034;5.090;2022-08-04T17:55:47;3.10;;;1.80;;
69894;SDS011;57172;52.034;5.090;2022-08-04T17:58:15;3.05;;;1.60;;
69894;SDS011;57172;52.034;5.090;2022-08-04T18:00:56;5.07;;;2.00;;
69894;SDS011;57172;52.034;5.090;2022-08-04T18:03:45;7.47;;;1.70;;
69894;SDS011;57172;52.034;5.090;2022-08-04T18:06:19;5.75;;;1.77;;
69894;SDS011;57172;52.034;5.090;2022-08-04T18:08:53;4.00;;;1.70;;
69894;SDS011;57172;52.034;5.090;2022-08-04T18:11:24;4.95;;;1.75;;
69894;SDS011;57172;52.034;5.090;2022-08-04T18:14:06;2.92;;;1.58;;
69894;SDS011;57172;52.034;5.090;2022-08-04T18:16:41;5.90;;;1.90;;
69894;SDS011;57172;52.034;5.090;2022-08-04T18:19:10;4.50;;;1.70;;
69894;SDS011;57172;52.034;5.090;2022-08-04T18:21:38;4.93;;;1.60;;
69894;SDS011;57172;52.034;5.090;2022-08-04T18:24:24;5.05;;;1.73;;
69894;SDS011;57172;52.034;5.090;2022-08-04T18:27:01;3.47;;;1.40;;
69894;SDS011;57172;52.034;5.090;2022-08-04T18:29:34;5.43;;;1.50;;
69894;SDS011;57172;52.034;5.090;2022-08-04T18:32:04;7.45;;;1.80;;
69894;SDS011;57172;52.034;5.090;2022-08-04T18:34:34;6.00;;;1.60;;
69894;SDS011;57172;52.034;5.090;2022-08-04T18:37:22;6.00;;;1.80;;
69894;SDS011;57172;52.034;5.090;2022-08-04T18:40:09;4.28;;;1.67;;
69894;SDS011;57172;52.034;5.090;2022-08-04T18:42:56;3.00;;;1.60;;
69894;SDS011;57172;52.034;5.090;2022-08-04T18:45:28;5.28;;;1.67;;
69894;SDS011;57172;52.034;5.090;2022-08-04T18:48:01;4.53;;;1.75;;
69894;SDS011;57172;52.034;5.090;2022-08-04T18:50:40;5.78;;;1.75;;
69894;SDS011;57172;52.034;5.090;2022-08-04T18:53:27;5.65;;;1.75;;
69894;SDS011;57172;52.034;5.090;2022-08-04T18:56:01;5.00;;;2.00;;
69894;SDS011;57172;52.034;5.090;2022-08-04T18:58:49;5.30;;;1.77;;
69894;SDS011;57172;52.034;5.090;2022-08-04T19:01:18;6.00;;;2.00;;
69894;SDS011;57172;52.034;5.090;2022-08-04T19:03:47;4.10;;;2.00;;
69894;SDS011;57172;52.034;5.090;2022-08-04T19:06:22;4.57;;;2.00;;
69894;SDS011;57172;52.034;5.090;2022-08-04T19:08:52;5.03;;;1.93;;
69894;SDS011;57172;52.034;5.090;2022-08-04T19:11:19;4.50;;;2.08;;
69894;SDS011;57172;52.034;5.090;2022-08-04T19:14:09;4.85;;;1.92;;
69894;SDS011;57172;52.034;5.090;2022-08-04T19:16:39;4.13;;;1.90;;
69894;SDS011;57172;52.034;5.090;2022-08-04T19:19:11;5.57;;;2.00;;
69894;SDS011;57172;52.034;5.090;2022-08-04T19:21:39;5.63;;;1.97;;
69894;SDS011;57172;52.034;5.090;2022-08-04T19:24:27;5.63;;;2.10;;
69894;SDS011;57172;52.034;5.090;2022-08-04T19:27:01;6.90;;;2.10;;
69894;SDS011;57172;52.034;5.090;2022-08-04T19:29:34;5.97;;;2.25;;
69894;SDS011;57172;52.034;5.090;2022-08-04T19:32:08;6.25;;;2.25;;
69894;SDS011;57172;52.034;5.090;2022-08-04T19:34:44;4.57;;;1.90;;
69894;SDS011;57172;52.034;5.090;2022-08-04T19:37:13;5.85;;;2.25;;
69894;SDS011;57172;52.034;5.090;2022-08-04T19:40:02;8.38;;;2.30;;
69894;SDS011;57172;52.034;5.090;2022-08-04T19:42:32;7.72;;;2.10;;
69894;SDS011;57172;52.034;5.090;2022-08-04T19:45:09;6.78;;;2.40;;
69894;SDS011;57172;52.034;5.090;2022-08-04T19:47:41;5.30;;;2.30;;
69894;SDS011;57172;52.034;5.090;2022-08-04T19:50:28;7.05;;;2.33;;
69894;SDS011;57172;52.034;5.090;2022-08-04T19:52:54;6.45;;;2.50;;
69894;SDS011;57172;52.034;5.090;2022-08-04T19:55:24;7.80;;;2.45;;
69894;SDS011;57172;52.034;5.090;2022-08-04T19:58:03;5.45;;;2.40;;
69894;SDS011;57172;52.034;5.090;2022-08-04T20:00:33;7.57;;;2.40;;
69894;SDS011;57172;52.034;5.090;2022-08-04T20:03:02;6.68;;;2.20;;
69894;SDS011;57172;52.034;5.090;2022-08-04T20:05:37;5.97;;;2.10;;
69894;SDS011;57172;52.034;5.090;2022-08-04T20:08:20;4.78;;;2.10;;
69894;SDS011;57172;52.034;5.090;2022-08-04T20:10:53;5.97;;;2.22;;
69894;SDS011;57172;52.034;5.090;2022-08-04T20:13:23;6.13;;;2.50;;
69894;SDS011;57172;52.034;5.090;2022-08-04T20:16:10;5.53;;;2.45;;
69894;SDS011;57172;52.034;5.090;2022-08-04T20:18:55;5.93;;;2.50;;
69894;SDS011;57172;52.034;5.090;2022-08-04T20:21:29;6.85;;;2.53;;
69894;SDS011;57172;52.034;5.090;2022-08-04T20:24:16;7.45;;;2.00;;
69894;SDS011;57172;52.034;5.090;2022-08-04T20:27:03;8.53;;;2.13;;
69894;SDS011;57172;52.034;5.090;2022-08-04T20:29:40;9.30;;;2.30;;
69894;SDS011;57172;52.034;5.090;2022-08-04T20:32:28;5.00;;;2.30;;
69894;SDS011;57172;52.034;5.090;2022-08-04T20:34:55;4.97;;;2.30;;
69894;SDS011;57172;52.034;5.090;2022-08-04T20:37:23;6.50;;;2.53;;
69894;SDS011;57172;52.034;5.090;2022-08-04T20:40:11;8.70;;;2.50;;